Data for 01/12/2013

Time Sea-Level Adjusted Pressure Absolute Pressure Temperature Relative Humidity Dew Point   
(mb) (inHg) (mb) (inHg) (C) (F) (%) (C) (F)
00:05 1017 30.03 847 25.01 -15.6 4 84 -17.7 0.1
00:10 1017 30.03 847 25.01 -15.6 3.9 84 -17.8 0
00:15 1017 30.03 847 25.01 -15.6 4 84 -17.7 0.1
00:20 1017 30.03 847 25.01 -15.5 4.1 83 -17.8 0
00:25 1017 30.03 847 25.01 -15.6 3.9 83 -17.9 -0.3
00:30 1018 30.06 847 25.01 -15.7 3.7 83 -17.9 -0.3
00:35 1018 30.06 847 25.01 -15.7 3.7 83 -17.9 -0.2
00:40 1018 30.06 847 25.01 -15.7 3.7 83 -17.9 -0.2
00:45 1018 30.06 847 25.01 -15.7 3.8 84 -17.7 0.1
00:50 1018 30.06 847 25.01 -15.6 3.9 84 -17.8 -0
00:55 1018 30.06 847 25.01 -15.6 3.9 84 -17.8 -0
01:00 1018 30.06 847 25.01 -15.6 3.8 84 -17.7 0.1
01:05 1018 30.06 847 25.01 -15.6 3.8 84 -17.8 0
01:10 1018 30.06 847 25.01 -15.7 3.8 83 -17.9 -0.1
01:15 1018 30.06 847 25.01 -15.7 3.7 83 -17.9 -0.2
01:20 1018 30.06 847 25.01 -15.8 3.7 84 -17.8 -0.1
01:25 1018 30.06 847 25.01 -15.7 3.7 84 -17.8 -0.1
01:30 1018 30.06 847 25.01 -15.7 3.7 83 -18 -0.3
01:35 1018 30.06 847 25.01 -15.9 3.4 84 -18 -0.4
01:40 1018 30.06 847 25.01 -15.9 3.4 84 -18 -0.4
01:45 1018 30.06 847 25.01 -15.9 3.3 84 -18.1 -0.6
01:50 1018 30.06 847 25.01 -15.9 3.4 84 -18.1 -0.5
01:55 1018 30.06 847 25.01 -15.8 3.5 84 -17.9 -0.3
02:00 1018 30.06 847 25.01 -15.8 3.6 84 -17.9 -0.2
02:05 1018 30.06 847 25.01 -15.7 3.7 84 -17.9 -0.2
02:10 1018 30.06 847 25.01 -15.7 3.8 83 -17.9 -0.3
02:15 1018 30.06 847 25.01 -15.7 3.7 83 -18 -0.3
02:20 1018 30.06 847 25.01 -15.7 3.8 83 -17.9 -0.2
02:25 1018 30.06 847 25.01 -15.7 3.7 83 -18 -0.4
02:30 1018 30.06 847 25.01 -15.7 3.7 83 -17.9 -0.3
02:35 1018 30.06 847 25.01 -15.7 3.7 83 -18 -0.3
02:40 1018 30.06 847 25.01 -15.9 3.5 83 -18.1 -0.6
02:45 1018 30.06 847 25.01 -15.9 3.3 83 -18.1 -0.6
02:50 1018 30.06 847 25.01 -16 3.2 84 -18.1 -0.7
02:55 1018 30.06 847 25.01 -16.1 3 84 -18.2 -0.8
03:00 1018 30.06 847 25.01 -16.1 2.9 84 -18.3 -0.9
03:05 1018 30.06 847 25.01 -16.2 2.9 84 -18.3 -1
03:10 1018 30.06 847 25.01 -16.2 2.9 84 -18.3 -1
03:15 1018 30.06 847 25.01 -16.2 2.8 84 -18.4 -1
03:20 1018 30.06 847 25.01 -16.3 2.7 84 -18.4 -1.2
03:25 1018 30.06 847 25.01 -16.4 2.4 84 -18.5 -1.3
03:30 1018 30.06 847 25.01 -16.5 2.2 84 -18.6 -1.5
03:35 1018 30.06 847 25.01 -16.6 2 85 -18.5 -1.4
03:40 1018 30.06 847 25.01 -16.6 2.1 85 -18.5 -1.4
03:45 1018 30.06 847 25.01 -16.6 2.2 86 -18.4 -1.1
03:50 1018 30.06 847 25.01 -16.6 2.1 86 -18.4 -1.1
03:55 1018 30.06 847 25.01 -16.6 2 86 -18.4 -1.2
04:00 1018 30.06 847 25.01 -16.7 1.9 85 -18.7 -1.6
04:05 1018 30.06 847 25.01 -17 1.5 84 -19 -2.2
04:10 1018 30.06 847 25.01 -17.3 0.9 86 -19.1 -2.4
04:15 1018 30.06 847 25.01 -17.3 0.8 86 -19.1 -2.4
04:20 1018 30.06 847 25.01 -17.5 0.6 87 -19.2 -2.5
04:25 1018 30.06 847 25.01 -17.4 0.6 86 -19.2 -2.6
04:30 1018 30.06 847 25.01 -17.6 0.3 85 -19.5 -3.1
04:35 1018 30.06 847 25.01 -17.8 -0.1 84 -19.9 -3.8
04:40 1017 30.03 847 25.01 -18.2 -0.8 84 -20.3 -4.6
04:45 1017 30.03 846 24.98 -18.7 -1.6 83 -20.8 -5.5
04:50 1017 30.03 846 24.98 -18.8 -1.8 83 -21 -5.7
04:55 1017 30.03 846 24.98 -18.7 -1.7 82 -21 -5.9
05:00 1017 30.03 846 24.98 -18.7 -1.6 82 -21 -5.9
05:05 1017 30.03 846 24.98 -18.6 -1.5 82 -20.9 -5.7
05:10 1017 30.03 846 24.98 -18.5 -1.3 81 -21 -5.8
05:15 1017 30.03 846 24.98 -18.9 -2 81 -21.4 -6.6
05:20 1017 30.03 846 24.98 -19.3 -2.8 80 -22 -7.6
05:25 1017 30.03 846 24.98 -19.3 -2.8 80 -22 -7.6
05:30 1017 30.03 846 24.98 -19.1 -2.4 78 -22 -7.5
05:35 1017 30.03 846 24.98 -19.1 -2.5 78 -22.1 -7.8
05:40 1017 30.03 846 24.98 -19.3 -2.8 80 -22 -7.5
05:45 1017 30.03 846 24.98 -19.3 -2.7 79 -22 -7.6
05:50 1017 30.03 846 24.98 -19.1 -2.3 79 -21.8 -7.3
05:55 1017 30.03 846 24.98 -18.7 -1.7 78 -21.6 -6.9
06:00 1017 30.03 846 24.98 -18.8 -1.8 79 -21.6 -6.9
06:05 1017 30.03 846 24.98 -19 -2.1 82 -21.3 -6.4
06:10 1016 30 846 24.98 -19 -2.2 83 -21.2 -6.2
06:15 1016 30 846 24.98 -18.9 -1.9 83 -21.1 -6
06:20 1017 30.03 846 24.98 -18.9 -2.1 82 -21.2 -6.2
06:25 1017 30.03 846 24.98 -19.1 -2.4 81 -21.6 -6.8
06:30 1017 30.03 846 24.98 -19.3 -2.7 84 -21.4 -6.4
06:35 1017 30.03 846 24.98 -19.2 -2.6 81 -21.7 -7.1
06:40 1017 30.03 846 24.98 -19.5 -3.1 82 -21.8 -7.3
06:45 1016 30 846 24.98 -19.3 -2.8 82 -21.7 -7
06:50 1016 30 846 24.98 -19.4 -2.9 81 -21.9 -7.3
06:55 1016 30 846 24.98 -19.5 -3 82 -21.8 -7.2
07:00 1016 30 846 24.98 -19.1 -2.5 84 -21.3 -6.3
07:05 1016 30 846 24.98 -18.6 -1.5 81 -21.1 -5.9
07:10 1016 30 846 24.98 -18.5 -1.4 81 -21.1 -5.9
07:15 1016 30 846 24.98 -18.6 -1.4 81 -21.1 -5.9
07:20 1016 30 846 24.98 -18.6 -1.5 79 -21.4 -6.5
07:25 1016 30 846 24.98 -18.7 -1.7 76 -21.9 -7.4
07:30 1017 30.03 846 24.98 -18.6 -1.5 77 -21.7 -7.1
07:35 1017 30.03 846 24.98 -19 -2.2 79 -21.7 -7.1
07:40 1017 30.03 846 24.98 -19.1 -2.4 80 -21.8 -7.2
07:45 1017 30.03 846 24.98 -19.2 -2.5 81 -21.7 -7
07:50 1017 30.03 846 24.98 -19.2 -2.6 79 -22.1 -7.7
07:55 1017 30.03 846 24.98 -19.6 -3.2 82 -21.9 -7.4
08:00 1017 30.03 846 24.98 -19.4 -2.9 82 -21.8 -7.2
08:05 1017 30.03 846 24.98 -19.3 -2.7 81 -21.7 -7.1
08:10 1017 30.03 846 24.98 -19.1 -2.4 79 -21.9 -7.4
08:15 1017 30.03 846 24.98 -19.2 -2.5 78 -22 -7.7
08:20 1017 30.03 846 24.98 -19.2 -2.6 81 -21.8 -7.2
08:25 1017 30.03 846 24.98 -19 -2.3 80 -21.7 -7.1
08:30 1017 30.03 846 24.98 -19 -2.3 81 -21.5 -6.6
08:35 1017 30.03 846 24.98 -18.9 -1.9 80 -21.5 -6.7
08:40 1017 30.03 846 24.98 -18.9 -2 80 -21.6 -6.9
08:45 1017 30.03 846 24.98 -18.9 -2 79 -21.7 -7
08:50 1017 30.03 846 24.98 -18.9 -2 77 -22 -7.6
08:55 1017 30.03 846 24.98 -19.1 -2.4 77 -22.2 -8
09:00 1017 30.03 846 24.98 -19.2 -2.6 79 -22 -7.7
09:05 1017 30.03 846 24.98 -19.3 -2.7 77 -22.4 -8.3
09:10 1017 30.03 846 24.98 -19.5 -3.1 76 -22.7 -8.9
09:15 1017 30.03 846 24.98 -19.6 -3.3 75 -22.9 -9.3
09:20 1017 30.03 846 24.98 -19.8 -3.6 76 -22.9 -9.2
09:25 1017 30.03 846 24.98 -19.8 -3.6 75 -23.1 -9.6
09:30 1017 30.03 846 24.98 -19.6 -3.2 76 -22.9 -9.2
09:35 1017 30.03 846 24.98 -19.1 -2.3 74 -22.7 -8.8
09:40 1017 30.03 846 24.98 -19 -2.2 74 -22.6 -8.7
09:45 1017 30.03 846 24.98 -19.2 -2.6 74 -22.7 -8.9
09:50 1017 30.03 846 24.98 -19.1 -2.4 75 -22.5 -8.5
09:55 1017 30.03 846 24.98 -18.8 -1.8 76 -22 -7.5
10:00 1017 30.03 847 25.01 -18.5 -1.2 72 -22.4 -8.4
10:05 1017 30.03 847 25.01 -18.7 -1.6 73 -22.4 -8.3
10:10 1017 30.03 847 25.01 -18.5 -1.3 72 -22.3 -8.1
10:15 1017 30.03 847 25.01 -18.4 -1.1 74 -22 -7.7
10:20 1018 30.06 847 25.01 -18.2 -0.7 74 -21.7 -7.1
10:25 1018 30.06 847 25.01 -17.7 0.2 73 -21.4 -6.5
10:30 1018 30.06 847 25.01 -17.2 1 72 -21.2 -6.1
10:35 1018 30.06 847 25.01 -16.7 1.9 73 -20.5 -5
10:40 1018 30.06 847 25.01 -16.3 2.7 71 -20.4 -4.7
10:45 1018 30.06 847 25.01 -16 3.2 71 -20.1 -4.2
10:50 1018 30.06 847 25.01 -15.8 3.5 69 -20.3 -4.5
10:55 1018 30.06 847 25.01 -15.9 3.4 70 -20.2 -4.3
11:00 1018 30.06 847 25.01 -15.6 3.9 71 -19.8 -3.6
11:05 1018 30.06 847 25.01 -15.5 4.1 70 -19.7 -3.5
11:10 1018 30.06 847 25.01 -15.3 4.4 70 -19.7 -3.5
11:15 1018 30.06 847 25.01 -15.8 3.5 73 -19.5 -3.2
11:20 1018 30.06 848 25.04 -16.3 2.6 75 -19.7 -3.5
11:25 1018 30.06 848 25.04 -16.4 2.5 76 -19.8 -3.6
11:30 1018 30.06 848 25.04 -16.6 2.2 77 -19.8 -3.6
11:35 1018 30.06 848 25.04 -16.5 2.3 76 -19.7 -3.5
11:40 1018 30.06 848 25.04 -16.5 2.3 77 -19.7 -3.4
11:45 1019 30.09 848 25.04 -16.4 2.5 76 -19.7 -3.4
11:50 1019 30.09 848 25.04 -16.6 2 79 -19.5 -3.2
11:55 1019 30.09 848 25.04 -16.5 2.3 79 -19.4 -2.9
12:00 1019 30.09 848 25.04 -16.4 2.5 77 -19.5 -3.1
12:05 1019 30.09 848 25.04 -16.4 2.6 77 -19.4 -3
12:10 1019 30.09 848 25.04 -16 3.2 76 -19.4 -2.9
12:15 1019 30.09 848 25.04 -15.8 3.6 75 -19.3 -2.7
12:20 1019 30.09 848 25.04 -15.7 3.8 75 -19.1 -2.4
12:25 1019 30.09 848 25.04 -15.6 3.9 73 -19.4 -3
12:30 1019 30.09 848 25.04 -16.4 2.6 77 -19.5 -3.1
12:35 1019 30.09 848 25.04 -16.5 2.3 77 -19.7 -3.4
12:40 1018 30.06 848 25.04 -16.6 2.2 78 -19.6 -3.3
12:45 1018 30.06 848 25.04 -16.3 2.7 77 -19.5 -3.1
12:50 1018 30.06 848 25.04 -16.6 2.1 76 -19.9 -3.8
12:55 1018 30.06 848 25.04 -16.5 2.4 76 -19.8 -3.6
13:00 1018 30.06 847 25.01 -16.2 2.9 76 -19.4 -3
13:05 1018 30.06 847 25.01 -16.1 3 75 -19.5 -3.2
13:10 1018 30.06 847 25.01 -15.9 3.4 75 -19.4 -2.9
13:15 1018 30.06 847 25.01 -15.5 4.1 76 -18.8 -1.9
13:20 1018 30.06 847 25.01 -15 4.9 72 -18.9 -2.1
13:25 1018 30.06 847 25.01 -15.2 4.7 72 -19.1 -2.4
13:30 1018 30.06 847 25.01 -15.2 4.7 74 -18.8 -1.8
13:35 1018 30.06 847 25.01 -14.7 5.6 74 -18.3 -1
13:40 1018 30.06 847 25.01 -14 6.7 68 -18.7 -1.6
13:45 1018 30.06 847 25.01 -13.7 7.4 68 -18.4 -1.1
13:50 1018 30.06 847 25.01 -13.9 7 70 -18.2 -0.8
13:55 1018 30.06 847 25.01 -13.9 7 69 -18.4 -1.1
14:00 1018 30.06 847 25.01 -13.6 7.5 70 -18 -0.4
14:05 1018 30.06 847 25.01 -13.5 7.8 71 -17.7 0.1
14:10 1018 30.06 847 25.01 -13.3 8.1 67 -18.2 -0.7
14:15 1018 30.06 847 25.01 -13.5 7.6 69 -18.1 -0.5
14:20 1018 30.06 847 25.01 -13.5 7.8 69 -18 -0.4
14:25 1018 30.06 847 25.01 -13.7 7.4 70 -18.1 -0.5
14:30 1018 30.06 847 25.01 -14.1 6.6 70 -18.4 -1.1
14:35 1018 30.06 847 25.01 -14.2 6.4 70 -18.5 -1.3
14:40 1018 30.06 847 25.01 -14.1 6.6 71 -18.4 -1.1
14:45 1018 30.06 847 25.01 -13.7 7.3 71 -17.9 -0.3
14:50 1018 30.06 847 25.01 -13.6 7.6 73 -17.5 0.5
14:55 1018 30.06 847 25.01 -13.2 8.2 70 -17.6 0.3
15:00 1018 30.06 847 25.01 -13.7 7.3 74 -17.3 0.8
15:05 1018 30.06 847 25.01 -13.2 8.2 72 -17.3 0.9
15:10 1018 30.06 847 25.01 -13 8.6 72 -17 1.4
15:15 1018 30.06 847 25.01 -13 8.7 72 -16.9 1.5
15:20 1018 30.06 847 25.01 -13.3 8 74 -17 1.4
15:25 1018 30.06 847 25.01 -13.7 7.3 74 -17.4 0.8
15:30 1018 30.06 847 25.01 -13.5 7.7 73 -17.4 0.7
15:35 1018 30.06 847 25.01 -13.6 7.6 73 -17.4 0.7
15:40 1018 30.06 847 25.01 -13.5 7.7 73 -17.4 0.6
15:45 1018 30.06 847 25.01 -13.8 7.3 74 -17.5 0.6
15:50 1018 30.06 847 25.01 -13.9 7 74 -17.6 0.4
15:55 1018 30.06 847 25.01 -13.7 7.3 74 -17.4 0.7
16:00 1018 30.06 847 25.01 -13.7 7.4 73 -17.5 0.5
16:05 1018 30.06 847 25.01 -13.9 7 75 -17.5 0.5
16:10 1018 30.06 847 25.01 -13.9 6.9 76 -17.3 0.9
16:15 1018 30.06 847 25.01 -13.7 7.4 75 -17.1 1.2
16:20 1018 30.06 848 25.04 -13.6 7.5 75 -17.1 1.2
16:25 1018 30.06 848 25.04 -13.6 7.5 75 -17.1 1.2
16:30 1018 30.06 848 25.04 -13.7 7.3 76 -17.1 1.2
16:35 1018 30.06 848 25.04 -13.8 7.3 77 -17 1.4
16:40 1018 30.06 848 25.04 -13.8 7.3 77 -17 1.4
16:45 1018 30.06 848 25.04 -13.8 7.2 77 -17.1 1.3
16:50 1018 30.06 848 25.04 -13.9 7 77 -17.1 1.2
16:55 1018 30.06 848 25.04 -14.1 6.7 77 -17.2 1
17:00 1018 30.06 848 25.04 -14.2 6.5 79 -17.1 1.1
17:05 1018 30.06 848 25.04 -14.2 6.4 78 -17.2 1.1
17:10 1018 30.06 848 25.04 -14.2 6.4 79 -17.2 1.1
17:15 1019 30.09 848 25.04 -14.4 6.1 80 -17.2 1.1
17:20 1019 30.09 848 25.04 -14.5 5.9 81 -17.1 1.1
17:25 1019 30.09 848 25.04 -14.4 6 81 -17 1.4
17:30 1019 30.09 848 25.04 -14.3 6.3 81 -16.8 1.7
17:35 1019 30.09 848 25.04 -14.2 6.5 81 -16.8 1.8
17:40 1019 30.09 848 25.04 -14.2 6.4 81 -16.8 1.7
17:45 1019 30.09 848 25.04 -14.4 6.1 82 -16.9 1.6
17:50 1019 30.09 848 25.04 -14.5 5.9 82 -16.9 1.6
17:55 1019 30.09 848 25.04 -14.6 5.7 83 -16.9 1.5
18:00 1019 30.09 848 25.04 -14.6 5.7 83 -16.9 1.6
18:05 1019 30.09 848 25.04 -14.6 5.7 83 -16.9 1.6
18:10 1019 30.09 848 25.04 -14.7 5.6 83 -16.9 1.5
18:15 1019 30.09 848 25.04 -14.7 5.5 83 -16.9 1.5
18:20 1019 30.09 848 25.04 -14.6 5.7 82 -17 1.4
18:25 1019 30.09 848 25.04 -14.7 5.6 83 -17 1.4
18:30 1019 30.09 848 25.04 -14.7 5.5 83 -17 1.3
18:35 1019 30.09 848 25.04 -14.8 5.5 83 -17 1.3
18:40 1019 30.09 848 25.04 -14.8 5.4 82 -17.2 1.1
18:45 1019 30.09 848 25.04 -14.8 5.3 82 -17.2 1
18:50 1019 30.09 848 25.04 -14.9 5.2 83 -17.2 1
18:55 1019 30.09 848 25.04 -15 5 83 -17.3 0.9
19:00 1019 30.09 848 25.04 -15 5 83 -17.3 0.8
19:05 1019 30.09 848 25.04 -15.1 4.8 83 -17.3 0.8
19:10 1019 30.09 848 25.04 -15.2 4.7 83 -17.4 0.6
19:15 1019 30.09 848 25.04 -15.2 4.6 83 -17.4 0.7
19:20 1019 30.09 848 25.04 -15.3 4.4 84 -17.5 0.5
19:25 1019 30.09 848 25.04 -15.4 4.4 84 -17.5 0.4
19:30 1019 30.09 848 25.04 -15.5 4.2 84 -17.6 0.2
19:35 1019 30.09 848 25.04 -15.6 3.9 83 -17.8 -0.1
19:40 1019 30.09 848 25.04 -15.9 3.3 85 -17.9 -0.3
19:45 1019 30.09 848 25.04 -16.1 3.1 84 -18.2 -0.7
19:50 1019 30.09 848 25.04 -16.3 2.8 84 -18.3 -1
19:55 1019 30.09 848 25.04 -16.6 2.1 86 -18.4 -1.2
20:00 1019 30.09 848 25.04 -16.7 2 86 -18.5 -1.4
20:05 1019 30.09 848 25.04 -16.9 1.7 86 -18.6 -1.5
20:10 1019 30.09 848 25.04 -17.1 1.3 88 -18.7 -1.6
20:15 1019 30.09 848 25.04 -17.1 1.2 88 -18.7 -1.7
20:20 1019 30.09 848 25.04 -17.1 1.2 87 -18.7 -1.7
20:25 1019 30.09 848 25.04 -17.2 1 87 -18.8 -1.9
20:30 1019 30.09 848 25.04 -17.1 1.1 87 -18.9 -2
20:35 1019 30.09 848 25.04 -17.2 1.1 86 -19 -2.1
20:40 1019 30.09 848 25.04 -17.4 0.7 87 -19.1 -2.4
20:45 1019 30.09 848 25.04 -17.9 -0.1 88 -19.4 -2.9
20:50 1019 30.09 848 25.04 -18 -0.4 89 -19.4 -3
20:55 1019 30.09 848 25.04 -17.8 -0.1 88 -19.3 -2.7
21:00 1019 30.09 848 25.04 -17.8 -0.1 87 -19.5 -3.1
21:05 1019 30.09 848 25.04 -17.9 -0.2 88 -19.4 -3
21:10 1019 30.09 848 25.04 -17.9 -0.3 89 -19.3 -2.8
21:15 1019 30.09 848 25.04 -17.7 0.1 88 -19.3 -2.7
21:20 1019 30.09 848 25.04 -17.9 -0.1 89 -19.3 -2.7
21:25 1019 30.09 848 25.04 -17.8 -0.1 89 -19.3 -2.7
21:30 1019 30.09 848 25.04 -17.7 0.1 86 -19.5 -3.2
21:35 1019 30.09 848 25.04 -17.9 -0.2 86 -19.8 -3.6
21:40 1019 30.09 848 25.04 -18 -0.5 86 -19.9 -3.8
21:45 1019 30.09 848 25.04 -18.3 -0.9 86 -20.2 -4.3
21:50 1019 30.09 848 25.04 -18.5 -1.2 86 -20.2 -4.4
21:55 1019 30.09 848 25.04 -18.6 -1.4 86 -20.3 -4.6
22:00 1019 30.09 848 25.04 -18.8 -1.8 87 -20.5 -4.8
22:05 1019 30.09 848 25.04 -18.7 -1.7 84 -20.8 -5.5
22:10 1019 30.09 848 25.04 -19.1 -2.3 84 -21.1 -6
22:15 1019 30.09 848 25.04 -19.3 -2.7 84 -21.4 -6.5
22:20 1019 30.09 848 25.04 -19.5 -3.1 83 -21.6 -6.9
22:25 1019 30.09 848 25.04 -19.8 -3.7 84 -21.8 -7.3
22:30 1019 30.09 848 25.04 -19.7 -3.4 87 -21.4 -6.5
22:35 1019 30.09 848 25.04 -19.2 -2.6 87 -20.9 -5.6
22:40 1019 30.09 849 25.07 -18.9 -2.1 85 -20.9 -5.6
22:45 1019 30.09 849 25.07 -18.9 -1.9 85 -20.8 -5.5
22:50 1019 30.09 849 25.07 -18.9 -1.9 84 -20.9 -5.6
22:55 1019 30.09 849 25.07 -18.9 -2 85 -20.9 -5.6
23:00 1019 30.09 849 25.07 -18.9 -2 84 -20.9 -5.7
23:05 1019 30.09 849 25.07 -18.9 -2 84 -21 -5.8
23:10 1019 30.09 849 25.07 -19 -2.2 85 -20.9 -5.7
23:15 1019 30.09 849 25.07 -18.8 -1.9 85 -20.8 -5.4
23:20 1019 30.09 849 25.07 -18.8 -1.8 84 -20.9 -5.6
23:25 1019 30.09 849 25.07 -18.9 -2 84 -20.9 -5.6
23:30 1019 30.09 849 25.07 -19 -2.1 84 -21 -5.8
23:35 1019 30.09 849 25.07 -19 -2.3 85 -21 -5.7
23:40 1019 30.09 849 25.07 -18.8 -1.9 86 -20.7 -5.2
23:45 1019 30.09 849 25.07 -18.6 -1.5 86 -20.4 -4.8
23:50 1019 30.09 849 25.07 -18.4 -1.1 86 -20.2 -4.4
23:55 1019 30.09 849 25.07 -18.2 -0.7 86 -20 -4
24:00 1019 30.09 849 25.07 -18 -0.5 86 -19.9 -3.8